Create Custom Reports and Graphics: Custom Report

Latest Observation

39 Stations

Daily Data | America/Los_Angeles
as of 5/17/22 3:05 AM PDT
Station Date Daily Max Temp (°F) Time of Max Temp Daily Min Temp (°F) Time of Min Temp Daily Rain (In) Monthly Rain (In) Seasonal Rainfall (In) Daily ETo (in) 7 Day ETo (in) Daily Solar Rad (Cal/cm2) Wind Spd (mph) Daily Max Wind (mph) Time of Max Wind Max Wind Dir (°) Dew Pt (°F) Max RH (%) Min RH (%) Hrs 70-85F (hrs) Hrs > 95F (hrs) Powdery Mildew Stress (pts) Hrs <= 32F (hrs) Hrs <= 28F (hrs) GDDs (DL) Seas GDDs (DL) Chilling <=45F (hrs) Daily Leaf Wet Hrs (hrs) Daily Max CanT (°F) Daily Min CanT (°F) MinBV Day (V)
Colony 1 5/16/22 82.5 1620 51.1 0053 0.00 0.00 19.05 0.220 1.51 693 3.3 14.2 1325 W | 261 49.3 94 28 9.03 0.00 60 0.0 0.0 14.5 506 0.0 - - - 12.7
Colony 2 5/16/22 81.2 1607 52.0 0051 0.00 0.00 17.57 0.231 1.58 712 4.4 15.6 1614 WSW | 254 48.6 87 28 8.79 0.00 60 0.0 0.0 14.8 503 0.0 - - - 12.7
5 Wells 5/16/22 81.3 1612 51.1 0046 0.00 0.00 15.27 0.238 1.64 720 5.1 17.3 1449 WSW | 250 47.3 86 25 8.63 0.00 50 0.0 0.0 14.7 493 0.0 - - - 12.5
Simmerhorn 5/16/22 81.4 1538 50.8 0323 - - - - - - - - - - 48.3 100 26 8.40 0.00 40 0.0 0.0 14.2 473 0.0 - - - 12.4
Galt-East 5/16/22 81.4 1647 50.7 0433 0.00 0.00 11.57 0.214 1.48 654 4.0 15.9 1419 ESE | 110 48.9 90 29 8.45 0.00 60 0.0 0.0 15.0 482 0.0 - - - 12.1
Borden Hills 5/16/22 82.5 1654 52.1 0249 0.00 0.00 19.09 0.226 1.56 674 4.4 15.0 1720 W | 264 48.7 84 27 8.81 0.00 60 0.0 0.0 15.5 514 0.0 - - - 12.6
Sierra Loma-L27 5/16/22 82.1 1555 52.0 0445 0.00 0.00 15.21 - - - 3.6 13.6 1426 SSW | 207 49.6 89 28 8.84 0.00 60 0.0 0.0 15.2 512 0.0 - - - 12.6
Lockeford 5/16/22 79.5 1616 47.4 0610 0.00 0.37 16.17 0.205 1.43 626 3.5 14.2 1411 WNW | 285 48.9 90 29 7.98 0.00 40 0.0 0.0 13.4 472 0.0 1.5 - - 12.2
Lone Oak-L28 5/16/22 80.4 1459 45.3 0615 0.00 0.00 14.24 - - - 4.0 14.2 1450 NNE | 26 48.2 96 30 7.97 0.00 40 0.0 0.0 12.5 449 0.0 - - - 12.0
Kost Rd 5/16/22 81.0 1530 53.1 2351 0.00 0.00 16.04 0.211 1.44 643 4.6 15.9 1350 WSW | 246 50.8 91 33 8.37 0.00 50 0.0 0.0 15.4 517 0.0 - - - 12.3
Thornton 5/16/22 80.8 1547 52.9 0029 0.00 0.00 16.64 0.255 1.68 773 5.4 16.5 1156 W | 268 48.6 82 31 8.73 0.00 60 0.0 0.0 15.8 511 0.0 0.0 - - 12.4
Lodi (LangeTwins) 5/16/22 81.8 1604 54.2 0548 0.00 0.00 16.68 0.218 1.46 663 5.4 16.5 1430 SSW | 198 50.7 89 34 8.41 0.00 50 0.0 0.0 15.6 510 0.0 0.0 - - 12.2
Gilbeau Ranch 5/16/22 81.2 1605 51.2 0039 0.00 0.00 15.01 0.201 1.38 595 3.8 14.7 1335 WNW | 289 47.1 85 25 8.46 0.00 40 0.0 0.0 14.5 489 0.0 - - - 12.2
Galt West 5/16/22 79.7 1540 50.5 0545 0.00 0.00 19.14 0.209 1.43 649 4.6 17.3 1611 W | 266 50.0 94 36 8.31 0.00 80 0.0 0.0 13.6 483 0.0 - - - 12.5
Valley Oak 5/16/22 79.6 1548 50.0 0059 0.00 0.00 17.61 0.215 1.45 636 4.9 16.0 1405 WSW | 252 47.6 85 28 8.24 0.00 60 0.0 0.0 14.3 488 0.0 - - - 12.2
Guard Rd (Lodi WSW) 5/16/22 79.2 1502 47.7 0017 0.00 0.00 14.68 0.221 1.51 684 5.5 17.8 0656 W | 269 49.9 94 35 7.93 0.00 80 0.0 0.0 13.5 484 0.0 0.0 79.9 48.1 12.1
Linden 5/16/22 82.4 1520 45.0 0455 0.00 0.00 16.32 - - - 2.2 11.9 1027 WSW | 245 49.4 99 28 8.61 0.00 40 0.0 0.0 13.3 472 0.0 8.2 - - 12.6
DeVries Road-North 5/16/22 81.1 1526 51.4 0049 0.00 0.00 15.99 0.223 1.49 686 5.3 21.9 1302 W | 281 50.2 89 34 7.98 0.00 40 0.0 0.0 14.9 486 0.0 - - - 12.6
Acampo 5/16/22 79.6 1515 50.8 0059 0.00 0.00 14.80 0.197 1.26 665 1.9 14.8 0503 WSW | 240 46.4 84 23 8.06 0.00 60 0.0 0.0 15.0 510 0.0 12.8 - - 13.3
Acampo (Woodbridge) 5/16/22 78.1 1517 48.7 0626 0.00 0.00 13.51 0.227 1.60 709 5.9 17.0 1603 WSW | 242 48.8 94 29 7.44 0.00 70 0.0 0.0 13.1 478 0.0 - - - 12.3
Lodi West 5/16/22 81.2 1511 50.8 0625 0.00 0.00 14.03 0.209 1.40 600 4.0 18.0 1811 W | 265 47.3 88 26 8.64 0.00 60 0.0 0.0 15.2 522 0.0 8.2 - - 12.2
Teresi-Alpine Rd (East Lodi) 5/16/22 81.1 1519 47.5 0516 0.00 0.00 13.98 0.241 1.67 713 4.8 17.1 0850 WNW | 282 47.2 94 24 8.81 0.00 60 0.0 0.0 14.1 529 0.0 - - - 12.6
Victor - N (Katusha) 5/16/22 80.9 1455 47.0 0603 0.00 - 11.91 - - - 3.5 16.8 1551 W | 266 45.9 91 24 7.95 0.00 60 0.0 0.0 13.5 - 0.0 - - - 12.7
Live Oak 5/16/22 81.7 1651 46.3 0535 0.00 0.00 14.24 0.222 1.51 671 3.5 14.5 1613 WSW | 256 48.0 99 27 8.93 0.00 60 0.0 0.0 14.1 521 0.0 - - - 12.6
Sheldon 5/16/22 81.7 1628 49.4 0604 0.00 0.00 16.21 0.226 1.52 699 4.2 15.2 1317 SSW | 197 48.3 93 27 8.57 0.00 60 0.0 0.0 14.3 488 0.0 0.0 - - 12.7
Sloughhouse 5/16/22 84.1 1704 48.9 0059 0.00 0.00 16.49 0.217 1.49 643 4.0 17.5 1126 WSW | 245 47.3 89 24 8.91 0.00 70 0.0 0.0 14.9 493 0.0 - - - 12.4
Utter - Wilson 5/16/22 83.9 1532 52.2 0533 0.00 0.00 16.46 0.223 1.47 672 5.3 17.8 1813 W | 276 51.2 91 35 8.86 0.00 40 0.0 0.0 15.5 517 0.0 - - - 12.6
Clarksburg 5/16/22 82.6 1544 53.7 0523 0.00 0.00 10.94 0.249 1.51 708 7.2 20.3 1729 SW | 228 48.9 85 29 9.05 0.00 70 0.0 0.0 16.0 514 0.0 - - - 12.5
Clarksburg-3A2 5/16/22 81.4 1538 53.7 0604 0.00 0.00 16.12 0.248 1.61 693 9.6 23.3 1724 W | 278 49.6 87 32 8.16 0.00 60 0.0 0.0 15.1 488 0.0 - - - 12.7
Gorter - Wilson 5/16/22 82.8 1521 52.5 0541 0.00 0.00 16.88 0.199 1.31 545 6.2 17.2 1716 SW | 230 50.9 88 35 8.70 0.00 60 0.0 0.0 15.4 503 0.0 - - - 12.7
Hood 5/16/22 79.9 1534 52.1 0059 0.00 0.00 16.65 0.223 1.45 682 6.6 19.4 1802 SW | 225 50.7 87 36 8.03 0.00 60 0.0 0.0 14.6 487 0.0 - - - 12.4
Courtland-C3 5/16/22 79.9 1519 54.3 0553 0.00 0.00 16.21 - - - 8.3 21.3 1726 SW | 220 50.5 87 35 7.76 0.00 60 0.0 0.0 14.5 492 0.0 - - - 12.6
Pacific Fruit 5/16/22 79.3 1448 55.0 0601 0.00 0.00 17.55 0.221 1.46 674 8.7 24.0 0432 W | 260 51.5 88 38 7.27 0.00 60 0.0 0.0 14.4 500 0.0 - - - 12.5
Ryer Island South 5/16/22 79.2 1456 56.2 0531 0.00 0.00 15.94 0.229 1.50 655 9.0 24.1 0452 SSW | 207 49.1 84 34 7.66 0.00 90 0.0 0.0 15.0 536 0.0 0.0 - - 12.2
Farmington (Mobley100) 5/16/22 81.1 1552 49.0 0550 - - - - - - 1.0 10.6 1555 W | 278 48.7 97 31 8.12 0.00 40 0.0 0.0 13.1 458 0.0 - - - 12.5
Collegeville 5/16/22 80.9 1547 49.4 0058 0.00 0.04 11.41 0.215 1.40 700 2.3 12.2 1854 W | 264 48.6 93 30 8.43 0.00 60 0.0 0.0 14.4 482 0.0 - - - 12.5
Oakdale North (28 Mile Rd) 5/16/22 81.1 1607 51.8 0348 - - - - - - 1.5 12.8 1450 WNW | 290 48.4 90 31 8.24 0.00 40 0.0 0.0 14.4 456 0.0 - - - 12.7
Escalon 5/16/22 80.4 1604 52.7 0609 0.00 0.00 10.85 - - - 3.7 13.3 1433 WNW | 290 48.3 90 30 8.27 0.00 60 0.0 0.0 14.7 511 0.0 0.0 - - 12.5
Claussen 5/16/22 78.1 1422 55.1 0059 0.00 0.00 9.23 0.239 1.56 731 8.3 21.9 0448 W | 263 50.3 86 38 7.03 0.00 60 0.0 0.0 14.0 528 0.0 - - - 12.5
Max   84.1 - 56.2 - 0.00 0.37 19.14 0.255 - 773 9.6 24.1 - - 51.5 100 38 9.05 0.00 - 0.0 0.0 16.0 - 0.0 12.8 - - 13.3
Avg   - - - - - 0.01 - - - - 4.8 - - - 48.9 - - 8.33 0.00 - 0.0 0.0 14.5 - 0.0 - - - -
Min   78.1 - 45.0 - 0.00 0.00 9.23 0.197 - 545 1.0 10.6 - - 45.9 82 23 7.03 0.00 - 0.0 0.0 12.5 - 0.0 0.0 - - 12.0